createdAt,value
2018-06-20T00:01:22.611Z,2.57
2018-06-20T00:03:49.859Z,2.50
2018-06-20T00:06:17.200Z,2.67
2018-06-20T00:08:50.935Z,2.50
2018-06-20T00:11:18.405Z,2.87
2018-06-20T00:13:45.679Z,2.70
2018-06-20T00:16:12.914Z,2.50
2018-06-20T00:18:40.162Z,2.50
2018-06-20T00:21:07.437Z,2.30
2018-06-20T00:23:34.657Z,2.60
2018-06-20T00:26:01.890Z,2.73
2018-06-20T00:28:29.113Z,2.60
2018-06-20T00:30:56.376Z,2.57
2018-06-20T00:33:23.614Z,2.90
2018-06-20T00:35:50.855Z,2.47
2018-06-20T00:38:18.082Z,3.13
2018-06-20T00:40:45.493Z,2.70
2018-06-20T00:43:12.749Z,2.80
2018-06-20T00:45:39.983Z,2.73
2018-06-20T00:48:07.226Z,2.80
2018-06-20T00:50:34.463Z,3.07
2018-06-20T00:53:01.727Z,2.70
2018-06-20T00:55:34.754Z,2.97
2018-06-20T00:58:02.132Z,2.90
2018-06-20T01:00:29.364Z,3.00
2018-06-20T01:02:56.644Z,2.97
2018-06-20T01:05:24.057Z,2.43
2018-06-20T01:07:51.284Z,2.37
2018-06-20T01:10:18.573Z,3.10
2018-06-20T01:12:45.809Z,2.60
2018-06-20T01:15:13.077Z,3.00
2018-06-20T01:17:40.309Z,2.90
2018-06-20T01:20:07.558Z,3.00
2018-06-20T01:22:34.825Z,2.70
2018-06-20T01:25:02.057Z,3.40
2018-06-20T01:27:29.286Z,3.10
2018-06-20T01:29:56.686Z,2.80
2018-06-20T01:32:23.920Z,2.97
2018-06-20T01:34:52.177Z,3.07
2018-06-20T01:37:19.428Z,3.10
2018-06-20T01:39:46.742Z,2.70
2018-06-20T01:42:13.993Z,2.57
2018-06-20T01:44:41.238Z,3.10
2018-06-20T01:47:08.549Z,3.60
2018-06-20T01:49:35.805Z,2.93
2018-06-20T01:52:03.045Z,2.70
2018-06-20T01:54:30.285Z,2.77
2018-06-20T01:56:57.549Z,2.53
2018-06-20T01:59:24.794Z,2.93
2018-06-20T02:01:52.061Z,2.87
2018-06-20T02:04:19.297Z,2.73
2018-06-20T02:06:46.557Z,3.00
2018-06-20T02:09:13.958Z,3.20
2018-06-20T02:11:41.254Z,3.00
2018-06-20T02:14:08.492Z,2.87
2018-06-20T02:16:35.757Z,3.20
2018-06-20T02:19:02.986Z,2.90
2018-06-20T02:21:30.262Z,2.90
2018-06-20T02:23:57.551Z,2.50
2018-06-20T02:26:24.798Z,2.50
2018-06-20T02:28:52.074Z,3.53
2018-06-20T02:31:19.370Z,2.50
2018-06-20T02:33:46.630Z,3.40
2018-06-20T02:36:19.485Z,3.00
2018-06-20T02:38:46.918Z,2.63
2018-06-20T02:41:14.163Z,2.77
2018-06-20T02:43:41.420Z,3.00
2018-06-20T02:46:08.658Z,2.73
2018-06-20T02:48:35.879Z,3.20
2018-06-20T02:51:03.158Z,2.70
2018-06-20T02:53:30.392Z,2.80
2018-06-20T02:55:57.658Z,2.40
2018-06-20T02:58:24.927Z,3.33
2018-06-20T03:00:52.377Z,3.30
2018-06-20T03:03:19.606Z,3.30
2018-06-20T03:05:46.826Z,2.80
2018-06-20T03:08:14.057Z,3.30
2018-06-20T03:10:41.335Z,3.10
2018-06-20T03:13:08.565Z,2.83
2018-06-20T03:15:35.822Z,3.00
2018-06-20T03:18:03.076Z,2.80
2018-06-20T03:20:30.315Z,2.67
2018-06-20T03:22:57.579Z,2.77
2018-06-20T03:25:24.858Z,2.40
2018-06-20T03:27:52.086Z,2.73
2018-06-20T03:30:19.365Z,2.90
2018-06-20T03:32:46.598Z,2.40
2018-06-20T03:35:13.932Z,2.37
2018-06-20T03:37:41.265Z,1.87
2018-06-20T03:40:08.546Z,2.40
2018-06-20T03:42:35.781Z,3.43
2018-06-20T03:45:03.066Z,3.70
2018-06-20T03:47:30.290Z,3.70
2018-06-20T03:49:57.548Z,2.70
2018-06-20T03:52:24.817Z,2.40
2018-06-20T03:54:52.041Z,2.20
2018-06-20T03:57:19.297Z,2.77
2018-06-20T03:59:46.557Z,2.40
2018-06-20T04:02:13.949Z,2.57
2018-06-20T04:04:41.358Z,2.23
2018-06-20T04:07:08.782Z,2.20
2018-06-20T04:09:36.385Z,2.50
2018-06-20T04:12:03.765Z,3.53
2018-06-20T04:14:31.020Z,2.50
2018-06-20T04:16:58.293Z,2.50
2018-06-20T04:19:25.553Z,2.10
2018-06-20T04:21:52.818Z,2.13
2018-06-20T04:24:20.120Z,2.30
2018-06-20T04:26:47.401Z,2.50
2018-06-20T04:29:14.666Z,2.30
2018-06-20T04:31:41.917Z,2.50
2018-06-20T04:34:09.193Z,2.30
2018-06-20T04:36:36.433Z,2.60
2018-06-20T04:39:05.579Z,2.43
2018-06-20T04:41:32.814Z,2.77
2018-06-20T04:44:00.044Z,2.23
2018-06-20T04:46:27.292Z,3.03
2018-06-20T04:48:54.545Z,2.90
2018-06-20T04:51:21.797Z,2.47
2018-06-20T04:53:49.042Z,2.67
2018-06-20T04:56:16.294Z,3.53
2018-06-20T04:58:43.533Z,4.70
2018-06-20T05:01:10.895Z,2.80
2018-06-20T05:03:38.162Z,2.80
2018-06-20T05:06:05.397Z,2.97
2018-06-20T05:08:32.668Z,6.23
2018-06-20T05:10:59.927Z,8.23
2018-06-20T05:13:27.185Z,4.03
2018-06-20T05:15:54.442Z,3.10
2018-06-20T05:18:21.761Z,3.00
2018-06-20T05:20:49.049Z,2.87
2018-06-20T05:23:16.489Z,2.53
2018-06-20T05:25:43.747Z,2.53
2018-06-20T05:28:11.073Z,3.10
2018-06-20T05:30:38.376Z,4.53
2018-06-20T05:33:05.629Z,5.37
2018-06-20T05:35:32.885Z,3.80
2018-06-20T05:38:00.133Z,3.70
2018-06-20T05:40:27.492Z,3.47
2018-06-20T05:42:54.760Z,3.10
2018-06-20T05:45:22.042Z,2.87
2018-06-20T05:47:49.278Z,2.90
2018-06-20T05:50:16.544Z,3.20
2018-06-20T05:52:44.004Z,4.03
2018-06-20T05:55:11.245Z,2.80
2018-06-20T05:57:38.513Z,3.07
2018-06-20T06:00:06.739Z,2.97
2018-06-20T06:02:34.015Z,2.50
2018-06-20T06:05:01.266Z,2.80
2018-06-20T06:07:28.562Z,2.60
2018-06-20T06:09:55.871Z,2.40
2018-06-20T06:12:23.165Z,7.13
2018-06-20T06:14:50.481Z,4.13
2018-06-20T06:17:17.759Z,3.33
2018-06-20T06:19:45.042Z,3.00
2018-06-20T06:22:12.302Z,2.90
2018-06-20T06:24:39.620Z,2.80
2018-06-20T06:27:06.859Z,2.70
2018-06-20T06:29:34.138Z,2.90
2018-06-20T06:32:01.441Z,2.43
2018-06-20T06:34:28.728Z,2.30
2018-06-20T06:36:57.939Z,2.30
2018-06-20T06:39:25.365Z,2.43
2018-06-20T06:41:52.618Z,2.73
2018-06-20T06:44:19.882Z,2.57
2018-06-20T06:46:47.129Z,2.43
2018-06-20T06:49:14.389Z,2.53
2018-06-20T06:51:41.656Z,2.23
2018-06-20T06:54:08.924Z,2.37
2018-06-20T06:56:36.181Z,2.30
2018-06-20T06:59:03.509Z,2.13
2018-06-20T07:01:30.782Z,2.47
2018-06-20T07:03:58.066Z,2.60
2018-06-20T07:06:25.320Z,2.30
2018-06-20T07:08:52.629Z,2.43
2018-06-20T07:11:19.901Z,2.30
2018-06-20T07:13:47.141Z,2.47
2018-06-20T07:16:14.397Z,2.27
2018-06-20T07:18:41.730Z,2.10
2018-06-20T07:21:08.994Z,2.30
2018-06-20T07:23:36.253Z,2.40
2018-06-20T07:26:03.500Z,2.73
2018-06-20T07:28:30.753Z,3.00
2018-06-20T07:30:58.032Z,2.13
2018-06-20T07:33:25.289Z,2.40
2018-06-20T07:35:52.614Z,2.00
2018-06-20T07:38:20.021Z,2.30
2018-06-20T07:40:47.279Z,2.20
2018-06-20T07:43:14.512Z,1.93
2018-06-20T07:45:41.761Z,2.20
2018-06-20T07:48:09.052Z,2.40
2018-06-20T07:50:36.341Z,2.17
2018-06-20T07:53:03.761Z,2.17
2018-06-20T07:55:31.002Z,1.50
2018-06-20T07:57:58.291Z,1.70
2018-06-20T08:01:30.048Z,2.07
2018-06-20T08:04:02.846Z,2.10
2018-06-20T08:06:35.649Z,1.80
2018-06-20T08:09:08.446Z,2.20
2018-06-20T08:11:41.077Z,1.90
2018-06-20T08:15:15.749Z,1.67
2018-06-20T08:17:48.526Z,2.10
2018-06-20T08:20:18.967Z,2.00
2018-06-20T08:22:46.222Z,1.97
2018-06-20T08:25:13.486Z,1.70
2018-06-20T08:27:40.852Z,2.20
2018-06-20T08:30:08.655Z,2.07
2018-06-20T08:32:35.957Z,1.80
2018-06-20T08:35:03.266Z,1.80
2018-06-20T08:37:30.868Z,1.93
2018-06-20T08:39:58.324Z,1.50
2018-06-20T08:42:25.733Z,1.70
2018-06-20T08:44:53.664Z,1.70
2018-06-20T08:47:20.998Z,1.80
2018-06-20T08:49:48.268Z,1.90
2018-06-20T08:52:15.554Z,1.83
2018-06-20T08:54:42.798Z,1.80
2018-06-20T08:57:10.060Z,1.93
2018-06-20T08:59:37.349Z,1.93
2018-06-20T09:02:04.772Z,1.70
2018-06-20T09:04:37.766Z,1.63
2018-06-20T09:07:10.517Z,1.90
2018-06-20T09:09:43.418Z,1.30
2018-06-20T09:12:16.186Z,1.30
2018-06-20T09:14:49.098Z,1.50
2018-06-20T09:17:21.811Z,1.80
2018-06-20T09:19:52.625Z,1.30
2018-06-20T09:22:19.861Z,1.70
2018-06-20T09:24:47.209Z,1.53
2018-06-20T09:27:14.890Z,1.40
2018-06-20T09:29:42.224Z,1.60
2018-06-20T09:32:09.498Z,1.30
2018-06-20T09:34:36.955Z,1.53
2018-06-20T09:37:04.225Z,1.40
2018-06-20T09:39:31.693Z,1.17
2018-06-20T09:41:59.129Z,1.30
2018-06-20T09:44:26.994Z,1.20
2018-06-20T09:46:54.309Z,1.27
2018-06-20T09:49:21.568Z,1.40
2018-06-20T09:51:48.926Z,1.30
2018-06-20T09:54:16.238Z,1.37
2018-06-20T09:56:43.679Z,1.30
2018-06-20T09:59:16.661Z,1.30
2018-06-20T10:01:49.483Z,1.47
2018-06-20T10:04:22.276Z,1.37
2018-06-20T10:06:55.111Z,3.70
2018-06-20T10:09:27.989Z,5.50
2018-06-20T10:12:00.645Z,3.90
2018-06-20T10:14:27.917Z,10.10
2018-06-20T10:16:55.185Z,4.63
2018-06-20T10:19:22.464Z,5.60
2018-06-20T10:21:49.713Z,5.13
2018-06-20T10:24:16.970Z,3.93
2018-06-20T10:26:44.358Z,3.13
2018-06-20T10:29:11.639Z,2.83
2018-06-20T10:31:38.920Z,3.00
2018-06-20T10:34:06.210Z,3.27
2018-06-20T10:36:33.638Z,2.87
2018-06-20T10:39:00.961Z,2.70
2018-06-20T10:41:32.533Z,2.03
2018-06-20T10:43:59.879Z,1.80
2018-06-20T10:46:32.566Z,1.53
2018-06-20T10:48:59.888Z,1.77
2018-06-20T10:51:27.125Z,1.80
2018-06-20T10:53:54.413Z,1.23
2018-06-20T10:56:27.126Z,1.53
2018-06-20T10:58:59.841Z,1.50
2018-06-20T11:01:32.689Z,1.40
2018-06-20T11:04:05.529Z,1.57
2018-06-20T11:06:38.317Z,1.83
2018-06-20T11:09:12.292Z,1.47
2018-06-20T11:11:45.178Z,1.50
2018-06-20T11:14:12.476Z,1.60
2018-06-20T11:16:39.750Z,1.80
2018-06-20T11:19:07.006Z,1.50
2018-06-20T11:21:34.294Z,2.00
2018-06-20T11:24:01.590Z,1.60
2018-06-20T11:26:28.897Z,1.60
2018-06-20T11:28:56.146Z,2.17
2018-06-20T11:31:23.485Z,1.50
2018-06-20T11:33:50.811Z,2.40
2018-06-20T11:36:18.079Z,1.80
2018-06-20T11:38:45.480Z,1.73
2018-06-20T11:41:12.748Z,1.70
2018-06-20T11:43:40.009Z,1.70
2018-06-20T11:46:12.924Z,1.40
2018-06-20T11:48:40.228Z,1.90
2018-06-20T11:51:08.112Z,1.57
2018-06-20T11:53:36.383Z,1.90
2018-06-20T11:56:03.629Z,1.57
2018-06-20T11:58:36.297Z,1.70
2018-06-20T12:01:09.175Z,1.60
2018-06-20T12:03:41.988Z,1.80
2018-06-20T12:06:14.787Z,1.60
2018-06-20T12:08:47.631Z,1.60
2018-06-20T12:11:20.433Z,1.60
2018-06-20T12:13:53.089Z,1.83
2018-06-20T12:16:26.264Z,1.80
2018-06-20T12:18:59.170Z,1.40
2018-06-20T12:21:32.002Z,1.70
2018-06-20T12:24:04.837Z,1.93
2018-06-20T12:26:37.546Z,1.70
2018-06-20T12:29:10.328Z,1.70
2018-06-20T12:31:43.307Z,1.70
2018-06-20T12:34:16.254Z,1.97
2018-06-20T12:36:48.955Z,1.60
2018-06-20T12:39:15.545Z,1.70
2018-06-20T12:41:48.297Z,1.90
2018-06-20T12:44:20.929Z,1.80
2018-06-20T12:46:58.679Z,1.60
2018-06-20T12:49:35.389Z,1.93
2018-06-20T12:52:02.774Z,1.70
2018-06-20T12:54:30.025Z,1.70
2018-06-20T12:56:57.358Z,1.70
2018-06-20T12:59:24.800Z,1.70
2018-06-20T13:01:52.095Z,1.70
2018-06-20T13:04:19.385Z,1.77
2018-06-20T13:06:46.620Z,1.90
2018-06-20T13:09:13.913Z,1.90
2018-06-20T13:11:41.677Z,2.10
2018-06-20T13:14:09.540Z,1.90
2018-06-20T13:16:36.809Z,1.90
2018-06-20T13:19:04.106Z,1.67
2018-06-20T13:21:31.464Z,1.50
2018-06-20T13:23:58.859Z,1.30
2018-06-20T13:26:26.442Z,1.80
2018-06-20T13:28:54.021Z,1.70
2018-06-20T13:31:26.685Z,1.80
2018-06-20T13:33:59.402Z,1.53
2018-06-20T13:36:32.189Z,2.07
2018-06-20T13:39:05.019Z,1.70
2018-06-20T13:41:37.791Z,1.60
2018-06-20T13:44:07.025Z,2.20
2018-06-20T13:46:39.977Z,2.10
2018-06-20T13:49:07.265Z,1.97
2018-06-20T13:51:34.850Z,2.03
2018-06-20T13:54:02.283Z,1.70
2018-06-20T13:56:29.583Z,1.63
2018-06-20T13:58:56.836Z,2.03
2018-06-20T14:01:24.126Z,1.80
2018-06-20T14:03:51.430Z,1.87
2018-06-20T14:06:18.680Z,1.90
2018-06-20T14:08:47.948Z,2.10
2018-06-20T14:11:15.302Z,2.00
2018-06-20T14:13:42.725Z,2.20
2018-06-20T14:16:09.993Z,1.80
2018-06-20T14:18:37.265Z,1.70
2018-06-20T14:21:10.044Z,1.73
2018-06-20T14:23:37.305Z,2.47
2018-06-20T14:26:04.734Z,1.83
2018-06-20T14:28:31.991Z,2.00
2018-06-20T14:31:04.830Z,3.20
2018-06-20T14:33:37.677Z,1.87
2018-06-20T14:36:10.501Z,1.50
2018-06-20T14:38:43.486Z,2.30
2018-06-20T14:41:16.795Z,2.10
2018-06-20T14:43:49.567Z,1.83
2018-06-20T14:46:21.938Z,1.80
2018-06-20T14:48:49.224Z,1.70
2018-06-20T14:51:17.021Z,1.80
2018-06-20T14:53:44.913Z,2.10
2018-06-20T14:56:12.183Z,2.10
2018-06-20T14:58:39.471Z,1.97
2018-06-20T15:01:06.831Z,1.77
2018-06-20T15:03:34.311Z,1.87
2018-06-20T15:06:01.598Z,2.50
2018-06-20T15:08:28.895Z,1.87
2018-06-20T15:10:56.153Z,2.10
2018-06-20T15:13:23.455Z,1.83
2018-06-20T15:15:50.774Z,1.80
2018-06-20T15:18:18.462Z,2.10
2018-06-20T15:20:46.250Z,2.20
2018-06-20T15:23:13.592Z,2.83
2018-06-20T15:25:45.207Z,2.07
2018-06-20T15:28:18.070Z,1.87
2018-06-20T15:30:50.989Z,2.40
2018-06-20T15:33:23.826Z,1.90
2018-06-20T15:35:56.652Z,1.80
2018-06-20T15:38:25.457Z,2.27
2018-06-20T15:40:52.797Z,2.10
2018-06-20T15:43:20.091Z,2.23
2018-06-20T15:45:47.391Z,1.60
2018-06-20T15:48:15.333Z,2.00
2018-06-20T15:50:42.691Z,2.10
2018-06-20T15:53:10.139Z,2.10
2018-06-20T15:55:37.390Z,1.70
2018-06-20T15:58:04.774Z,1.67
2018-06-20T16:00:32.140Z,2.10
2018-06-20T16:02:59.574Z,1.80
2018-06-20T16:05:26.930Z,2.07
2018-06-20T16:07:54.272Z,2.07
2018-06-20T16:10:21.554Z,2.87
2018-06-20T16:12:48.818Z,1.77
2018-06-20T16:15:16.869Z,1.80
2018-06-20T16:17:44.125Z,2.10
2018-06-20T16:20:16.954Z,2.40
2018-06-20T16:22:49.777Z,1.80
2018-06-20T16:25:22.577Z,1.90
2018-06-20T16:27:55.443Z,2.13
2018-06-20T16:30:31.285Z,2.60
2018-06-20T16:32:58.826Z,2.57
2018-06-20T16:35:26.367Z,2.53
2018-06-20T16:37:53.878Z,2.30
2018-06-20T16:40:21.308Z,2.03
2018-06-20T16:42:48.637Z,1.77
2018-06-20T16:45:16.057Z,2.10
2018-06-20T16:47:43.706Z,2.40
2018-06-20T16:50:11.067Z,1.90
2018-06-20T16:52:38.354Z,2.83
2018-06-20T16:55:05.657Z,2.90
2018-06-20T16:57:33.029Z,2.70
2018-06-20T17:00:00.528Z,2.97
2018-06-20T17:02:34.673Z,2.53
2018-06-20T17:05:02.309Z,2.23
2018-06-20T17:07:29.578Z,2.43
2018-06-20T17:09:56.834Z,1.80
2018-06-20T17:12:29.746Z,2.00
2018-06-20T17:15:02.790Z,2.03
2018-06-20T17:17:35.720Z,2.47
2018-06-20T17:20:08.566Z,3.30
2018-06-20T17:22:41.341Z,3.13
2018-06-20T17:25:41.782Z,1.87
2018-06-20T17:28:09.091Z,2.73
2018-06-20T17:30:36.346Z,2.33
2018-06-20T17:33:03.626Z,2.10
2018-06-20T17:35:30.902Z,2.10
2018-06-20T17:37:58.196Z,2.20
2018-06-20T17:40:25.705Z,2.10
2018-06-20T17:42:52.996Z,2.50
2018-06-20T17:45:20.262Z,2.90
2018-06-20T17:47:47.527Z,2.73
2018-06-20T17:50:14.807Z,2.43
2018-06-20T17:52:42.140Z,2.83
2018-06-20T17:55:09.488Z,2.30
2018-06-20T17:57:37.119Z,1.83
2018-06-20T18:00:04.589Z,2.00
2018-06-20T18:02:31.905Z,2.20
2018-06-20T18:06:04.604Z,1.80
2018-06-20T18:08:37.542Z,1.90
2018-06-20T18:11:12.695Z,2.10
2018-06-20T18:13:46.095Z,2.67
2018-06-20T18:16:18.779Z,2.30
2018-06-20T18:18:46.591Z,2.47
2018-06-20T18:21:14.773Z,2.30
2018-06-20T18:23:42.445Z,4.23
2018-06-20T18:37:05.072Z,3.30
2018-06-20T18:39:37.910Z,2.37
2018-06-20T18:42:05.695Z,2.43
2018-06-20T18:44:32.966Z,2.23
2018-06-20T18:47:00.327Z,3.03
2018-06-20T18:49:27.627Z,3.27
2018-06-20T18:51:54.895Z,2.60
2018-06-20T18:54:22.199Z,2.30
2018-06-20T18:56:49.479Z,2.77
2018-06-20T18:59:24.819Z,2.50
2018-06-20T19:01:57.874Z,2.63
2018-06-20T19:04:30.525Z,2.70
2018-06-20T19:07:03.215Z,2.30
2018-06-20T19:09:30.570Z,3.27
2018-06-20T19:11:57.870Z,2.67
2018-06-20T19:14:25.178Z,2.43
2018-06-20T19:16:52.659Z,2.97
2018-06-20T19:19:19.974Z,2.77
2018-06-20T19:21:47.257Z,2.70
2018-06-20T19:24:14.571Z,2.30
2018-06-20T19:26:41.891Z,2.50
2018-06-20T19:29:09.253Z,3.10
2018-06-20T19:31:36.671Z,3.00
2018-06-20T19:34:04.174Z,2.70
2018-06-20T19:36:31.702Z,2.47
2018-06-20T19:38:59.043Z,2.87
2018-06-20T19:41:26.569Z,2.60
2018-06-20T19:45:00.705Z,2.97
2018-06-20T19:47:28.371Z,3.12
2018-06-20T19:49:55.767Z,2.80
2018-06-20T19:52:23.061Z,3.37
2018-06-20T19:54:50.372Z,2.60
2018-06-20T19:57:17.854Z,3.00
2018-06-20T19:59:45.251Z,2.93
2018-06-20T20:02:12.503Z,3.13
2018-06-20T20:04:39.844Z,3.70
2018-06-20T20:07:07.198Z,3.63
2018-06-20T20:09:34.589Z,2.97
2018-06-20T20:12:01.949Z,3.33
2018-06-20T20:14:29.255Z,3.93
2018-06-20T20:16:56.587Z,5.30
2018-06-20T20:19:23.866Z,3.97
2018-06-20T20:21:51.154Z,4.20
2018-06-20T20:24:18.496Z,3.70
2018-06-20T20:26:45.779Z,4.20
2018-06-20T20:29:13.066Z,4.33
2018-06-20T20:31:40.342Z,4.30
2018-06-20T20:34:07.634Z,2.70
2018-06-20T20:36:35.175Z,3.50
2018-06-20T20:39:02.714Z,2.53
2018-06-20T20:41:30.067Z,3.10
2018-06-20T20:43:57.552Z,3.40
2018-06-20T20:46:24.827Z,3.57
2018-06-20T20:48:52.230Z,3.07
2018-06-20T20:51:19.497Z,3.67
2018-06-20T20:53:46.806Z,3.50
2018-06-20T20:56:14.067Z,3.30
2018-06-20T20:58:41.420Z,3.53
2018-06-20T21:01:08.728Z,3.70
2018-06-20T21:03:36.026Z,3.70
2018-06-20T21:06:03.316Z,3.70
2018-06-20T21:08:30.792Z,3.80
2018-06-20T21:10:58.128Z,3.60
2018-06-20T21:13:25.404Z,4.10
2018-06-20T21:15:52.642Z,4.40
2018-06-20T21:18:20.115Z,4.00
2018-06-20T21:20:47.363Z,3.87
2018-06-20T21:23:14.839Z,4.20
2018-06-20T21:25:42.173Z,4.50
2018-06-20T21:28:09.426Z,4.77
2018-06-20T21:30:36.709Z,3.80
2018-06-20T21:33:04.078Z,3.80
2018-06-20T21:35:31.617Z,4.47
2018-06-20T21:37:58.901Z,4.40
2018-06-20T21:40:26.173Z,4.07
2018-06-20T21:42:53.431Z,4.03
2018-06-20T21:45:20.709Z,4.43
2018-06-20T21:47:48.177Z,4.90
2018-06-20T21:50:15.454Z,4.40
2018-06-20T21:52:42.734Z,4.13
2018-06-20T21:55:09.963Z,4.30
2018-06-20T21:57:37.240Z,3.67
2018-06-20T22:00:06.620Z,4.27
2018-06-20T22:02:33.879Z,4.37
2018-06-20T22:05:01.130Z,4.10
2018-06-20T22:07:28.408Z,4.30
2018-06-20T22:09:55.687Z,4.70
2018-06-20T22:12:22.949Z,4.83
2018-06-20T22:14:50.307Z,4.40
2018-06-20T22:17:17.702Z,4.57
2018-06-20T22:19:44.990Z,4.70
2018-06-20T22:22:12.248Z,4.43
2018-06-20T22:24:39.482Z,4.20
2018-06-20T22:27:06.739Z,4.40
2018-06-20T22:29:33.985Z,3.90
2018-06-20T22:32:01.244Z,4.33
2018-06-20T22:34:28.487Z,4.50
2018-06-20T22:36:55.867Z,4.33
2018-06-20T22:39:23.166Z,4.70
2018-06-20T22:41:50.436Z,4.80
2018-06-20T22:44:17.720Z,4.73
2018-06-20T22:46:45.980Z,4.23
2018-06-20T22:49:13.309Z,3.80
2018-06-20T22:51:40.562Z,3.83
2018-06-20T22:54:07.793Z,3.97
2018-06-20T22:56:35.065Z,4.07
2018-06-20T22:59:02.323Z,4.33
2018-06-20T23:01:29.582Z,4.40
2018-06-20T23:03:57.375Z,4.13
2018-06-20T23:06:25.126Z,4.30
2018-06-20T23:08:52.687Z,4.27
2018-06-20T23:11:20.159Z,4.00
2018-06-20T23:13:47.615Z,3.90
2018-06-20T23:16:14.861Z,4.00
2018-06-20T23:18:42.117Z,3.47
2018-06-20T23:21:09.369Z,4.20
2018-06-20T23:23:36.917Z,4.57
2018-06-20T23:26:04.185Z,3.83
2018-06-20T23:28:31.438Z,3.80
2018-06-20T23:30:58.697Z,3.80
2018-06-20T23:33:25.949Z,4.20
2018-06-20T23:35:53.210Z,3.60
2018-06-20T23:38:20.501Z,4.17
2018-06-20T23:40:47.734Z,4.40
2018-06-20T23:43:14.978Z,3.87
2018-06-20T23:45:42.226Z,4.33
2018-06-20T23:48:09.498Z,3.73
2018-06-20T23:50:36.737Z,4.37
2018-06-20T23:53:04.068Z,3.67
2018-06-20T23:55:31.329Z,3.73
2018-06-20T23:57:58.582Z,4.80
